createdAt,value
2018-04-26T00:00:04.107Z,11.80
2018-04-26T00:01:04.087Z,9.30
2018-04-26T00:02:04.082Z,10.00
2018-04-26T00:03:04.058Z,10.30
2018-04-26T00:04:04.039Z,12.40
2018-04-26T00:05:04.026Z,11.90
2018-04-26T00:06:04.007Z,10.60
2018-04-26T00:07:03.991Z,11.70
2018-04-26T00:08:03.967Z,11.00
2018-04-26T00:09:03.953Z,15.40
2018-04-26T00:10:03.936Z,13.90
2018-04-26T00:11:03.922Z,13.00
2018-04-26T00:12:03.902Z,9.10
2018-04-26T00:13:03.984Z,10.60
2018-04-26T00:14:03.868Z,14.90
2018-04-26T00:15:03.859Z,13.80
2018-04-26T00:16:03.829Z,10.10
2018-04-26T00:17:03.823Z,10.30
2018-04-26T00:18:03.799Z,10.80
2018-04-26T00:19:03.879Z,10.20
2018-04-26T00:20:03.763Z,14.50
2018-04-26T00:21:03.899Z,10.50
2018-04-26T00:22:03.726Z,9.50
2018-04-26T00:23:03.709Z,10.90
2018-04-26T00:24:03.698Z,10.10
2018-04-26T00:25:03.780Z,15.40
2018-04-26T00:26:03.657Z,10.90
2018-04-26T00:27:03.644Z,11.40
2018-04-26T00:28:03.622Z,11.10
2018-04-26T00:29:03.710Z,11.60
2018-04-26T00:30:03.588Z,14.40
2018-04-26T00:31:03.674Z,10.80
2018-04-26T00:32:03.559Z,12.60
2018-04-26T00:33:03.536Z,11.70
2018-04-26T00:34:03.529Z,10.90
2018-04-26T00:35:03.610Z,10.90
2018-04-26T00:36:03.487Z,9.00
2018-04-26T00:37:03.518Z,7.90
2018-04-26T00:38:03.450Z,7.30
2018-04-26T00:39:03.532Z,14.90
2018-04-26T00:40:03.417Z,12.30
2018-04-26T00:41:03.401Z,11.80
2018-04-26T00:42:03.377Z,11.50
2018-04-26T00:43:03.414Z,10.20
2018-04-26T00:44:03.350Z,12.70
2018-04-26T00:45:03.379Z,13.90
2018-04-26T00:46:03.312Z,14.40
2018-04-26T00:47:03.350Z,10.80
2018-04-26T00:48:03.282Z,12.80
2018-04-26T00:49:03.309Z,9.70
2018-04-26T00:50:03.238Z,10.60
2018-04-26T00:51:03.227Z,11.40
2018-04-26T00:52:03.203Z,10.00
2018-04-26T00:53:03.187Z,9.20
2018-04-26T00:54:03.175Z,10.80
2018-04-26T00:55:03.151Z,10.30
2018-04-26T00:56:03.138Z,11.00
2018-04-26T00:57:03.117Z,8.20
2018-04-26T00:58:03.098Z,12.20
2018-04-26T00:59:03.086Z,9.30
2018-04-26T01:00:03.065Z,10.40
2018-04-26T01:01:03.047Z,11.30
2018-04-26T01:02:03.036Z,7.50
2018-04-26T01:03:03.016Z,11.00
2018-04-26T01:04:03.000Z,13.40
2018-04-26T01:05:02.978Z,9.50
2018-04-26T01:06:02.961Z,15.90
2018-04-26T01:07:02.949Z,11.50
2018-04-26T01:08:02.928Z,11.70
2018-04-26T01:09:02.910Z,10.40
2018-04-26T01:10:02.907Z,9.80
2018-04-26T01:11:02.878Z,10.90
2018-04-26T01:12:02.860Z,11.50
2018-04-26T01:13:02.849Z,9.20
2018-04-26T01:14:02.832Z,11.10
2018-04-26T01:15:02.810Z,11.80
2018-04-26T01:16:02.788Z,12.00
2018-04-26T01:17:02.775Z,10.70
2018-04-26T01:18:02.759Z,12.10
2018-04-26T01:19:02.739Z,16.00
2018-04-26T01:20:02.798Z,10.30
2018-04-26T01:21:02.705Z,12.90
2018-04-26T01:22:02.688Z,12.90
2018-04-26T01:23:02.668Z,7.80
2018-04-26T01:24:02.649Z,9.80
2018-04-26T01:25:02.636Z,9.70
2018-04-26T01:26:02.614Z,10.30
2018-04-26T01:27:02.598Z,9.70
2018-04-26T01:28:02.583Z,10.60
2018-04-26T01:29:02.571Z,11.50
2018-04-26T01:30:02.553Z,13.40
2018-04-26T01:31:02.538Z,11.00
2018-04-26T01:32:02.513Z,13.20
2018-04-26T01:33:02.498Z,11.40
2018-04-26T01:34:02.480Z,10.50
2018-04-26T01:35:02.457Z,9.60
2018-04-26T01:36:02.452Z,12.30
2018-04-26T01:37:02.435Z,11.60
2018-04-26T01:38:02.409Z,10.00
2018-04-26T01:39:02.395Z,8.10
2018-04-26T01:40:02.377Z,12.90
2018-04-26T01:41:02.357Z,11.70
2018-04-26T01:42:02.341Z,9.70
2018-04-26T01:43:02.322Z,11.70
2018-04-26T01:44:02.309Z,11.60
2018-04-26T01:45:02.293Z,13.00
2018-04-26T01:46:02.273Z,14.70
2018-04-26T01:47:02.254Z,13.60
2018-04-26T01:48:02.237Z,10.40
2018-04-26T01:49:02.220Z,11.10
2018-04-26T01:50:02.202Z,9.30
2018-04-26T01:51:02.189Z,7.50
2018-04-26T01:52:02.169Z,11.30
2018-04-26T01:53:02.155Z,11.60
2018-04-26T01:54:02.134Z,12.80
2018-04-26T01:55:02.121Z,12.20
2018-04-26T01:56:02.098Z,12.20
2018-04-26T01:57:02.089Z,9.50
2018-04-26T01:58:02.067Z,10.20
2018-04-26T01:59:02.045Z,13.70
2018-04-26T02:00:02.043Z,13.00
2018-04-26T02:01:02.011Z,12.30
2018-04-26T02:02:01.997Z,13.80
2018-04-26T02:03:01.976Z,12.40
2018-04-26T02:04:01.969Z,9.70
2018-04-26T02:05:01.946Z,14.00
2018-04-26T02:06:01.926Z,10.40
2018-04-26T02:07:01.909Z,12.40
2018-04-26T02:08:01.897Z,11.10
2018-04-26T02:09:01.879Z,12.40
2018-04-26T02:10:01.858Z,14.50
2018-04-26T02:11:01.843Z,13.00
2018-04-26T02:12:01.826Z,12.70
2018-04-26T02:13:01.816Z,10.30
2018-04-26T02:14:01.789Z,10.10
2018-04-26T02:15:01.778Z,12.00
2018-04-26T02:16:01.758Z,11.20
2018-04-26T02:17:01.739Z,9.60
2018-04-26T02:18:01.717Z,9.00
2018-04-26T02:19:01.705Z,8.60
2018-04-26T02:20:01.690Z,8.00
2018-04-26T02:21:01.670Z,11.60
2018-04-26T02:22:01.649Z,9.40
2018-04-26T02:23:01.637Z,7.10
2018-04-26T02:24:01.621Z,9.70
2018-04-26T02:25:01.596Z,7.00
2018-04-26T02:26:01.580Z,9.90
2018-04-26T02:27:01.570Z,10.90
2018-04-26T02:28:01.551Z,10.20
2018-04-26T02:29:01.530Z,12.00
2018-04-26T02:30:01.510Z,10.80
2018-04-26T02:31:01.492Z,10.40
2018-04-26T02:32:01.482Z,10.70
2018-04-26T02:33:01.461Z,10.80
2018-04-26T02:34:01.441Z,10.40
2018-04-26T02:35:01.423Z,9.20
2018-04-26T02:36:01.410Z,11.30
2018-04-26T02:37:01.393Z,13.20
2018-04-26T02:38:01.375Z,10.90
2018-04-26T02:39:01.350Z,10.50
2018-04-26T02:40:01.337Z,9.30
2018-04-26T02:41:01.321Z,10.90
2018-04-26T02:42:01.301Z,13.50
2018-04-26T02:43:01.288Z,9.60
2018-04-26T02:44:01.271Z,10.00
2018-04-26T02:45:01.251Z,11.10
2018-04-26T02:46:01.231Z,11.50
2018-04-26T02:47:01.219Z,9.80
2018-04-26T02:48:01.210Z,14.30
2018-04-26T02:49:01.180Z,8.70
2018-04-26T02:50:01.158Z,10.20
2018-04-26T02:51:01.141Z,11.60
2018-04-26T02:52:01.124Z,10.40
2018-04-26T02:53:01.107Z,12.00
2018-04-26T02:54:01.088Z,12.90
2018-04-26T02:55:01.077Z,11.80
2018-04-26T02:56:01.052Z,10.90
2018-04-26T02:57:01.038Z,11.20
2018-04-26T02:58:01.016Z,14.00
2018-04-26T02:59:01.001Z,11.00
2018-04-26T03:00:00.988Z,13.10
2018-04-26T03:01:00.966Z,11.30
2018-04-26T03:02:00.947Z,12.10
2018-04-26T03:03:00.935Z,13.50
2018-04-26T03:04:00.912Z,12.40
2018-04-26T03:05:00.895Z,10.80
2018-04-26T03:06:00.880Z,12.90
2018-04-26T03:07:00.859Z,11.50
2018-04-26T03:08:00.847Z,13.80
2018-04-26T03:09:00.824Z,11.80
2018-04-26T03:10:00.807Z,10.20
2018-04-26T03:11:00.792Z,14.00
2018-04-26T03:12:00.776Z,12.80
2018-04-26T03:13:00.758Z,14.40
2018-04-26T03:14:00.743Z,9.90
2018-04-26T03:15:00.717Z,12.90
2018-04-26T03:16:00.701Z,11.00
2018-04-26T03:17:00.685Z,15.60
2018-04-26T03:18:00.671Z,12.60
2018-04-26T03:19:00.647Z,11.40
2018-04-26T03:20:00.885Z,9.30
2018-04-26T03:21:00.618Z,12.20
2018-04-26T03:22:00.594Z,11.40
2018-04-26T03:23:00.577Z,12.30
2018-04-26T03:24:00.558Z,11.70
2018-04-26T03:25:00.539Z,15.30
2018-04-26T03:26:00.526Z,14.90
2018-04-26T03:27:00.508Z,12.30
2018-04-26T03:28:00.496Z,11.80
2018-04-26T03:29:00.482Z,12.80
2018-04-26T03:30:00.454Z,12.70
2018-04-26T03:31:00.533Z,13.30
2018-04-26T03:32:00.417Z,12.00
2018-04-26T03:33:00.399Z,14.50
2018-04-26T03:34:00.381Z,12.00
2018-04-26T03:35:00.362Z,12.70
2018-04-26T03:36:00.356Z,15.70
2018-04-26T03:37:00.335Z,10.90
2018-04-26T03:38:00.315Z,10.80
2018-04-26T03:39:00.294Z,17.50
2018-04-26T03:40:00.277Z,12.50
2018-04-26T03:41:00.269Z,16.00
2018-04-26T03:42:00.241Z,10.70
2018-04-26T03:43:00.222Z,13.80
2018-04-26T03:44:00.202Z,12.10
2018-04-26T03:45:00.185Z,12.80
2018-04-26T03:46:00.170Z,11.00
2018-04-26T03:47:00.148Z,11.40
2018-04-26T03:48:00.135Z,12.20
2018-04-26T03:49:00.118Z,11.00
2018-04-26T03:50:00.098Z,11.50
2018-04-26T03:51:00.080Z,11.50
2018-04-26T03:52:00.058Z,11.00
2018-04-26T03:53:00.041Z,10.00
2018-04-26T03:54:00.031Z,12.20
2018-04-26T03:55:00.010Z,9.60
2018-04-26T03:55:59.987Z,11.60
2018-04-26T03:56:59.970Z,9.70
2018-04-26T03:57:59.949Z,11.90
2018-04-26T03:58:59.937Z,13.50
2018-04-26T03:59:59.917Z,12.00
2018-04-26T04:00:59.900Z,15.10
2018-04-26T04:01:59.880Z,15.60
2018-04-26T04:02:59.862Z,13.60
2018-04-26T04:03:59.846Z,12.00
2018-04-26T04:04:59.830Z,13.70
2018-04-26T04:05:59.807Z,15.90
2018-04-26T04:06:59.790Z,11.70
2018-04-26T04:07:59.777Z,15.00
2018-04-26T04:08:59.755Z,10.70
2018-04-26T04:09:59.738Z,15.80
2018-04-26T04:10:59.723Z,11.50
2018-04-26T04:11:59.704Z,14.70
2018-04-26T04:12:59.685Z,11.80
2018-04-26T04:13:59.670Z,11.10
2018-04-26T04:14:59.652Z,15.00
2018-04-26T04:15:59.647Z,11.70
2018-04-26T04:16:59.618Z,15.20
2018-04-26T04:17:59.592Z,14.40
2018-04-26T04:18:59.584Z,11.70
2018-04-26T04:19:59.559Z,12.30
2018-04-26T04:20:59.544Z,8.30
2018-04-26T04:21:59.548Z,8.20
2018-04-26T04:22:59.506Z,12.10
2018-04-26T04:23:59.486Z,9.90
2018-04-26T04:24:59.476Z,7.70
2018-04-26T04:25:59.454Z,9.30
2018-04-26T04:26:59.441Z,9.60
2018-04-26T04:27:59.442Z,7.70
2018-04-26T04:28:59.403Z,9.40
2018-04-26T04:29:59.382Z,16.90
2018-04-26T04:30:59.368Z,10.30
2018-04-26T04:31:59.348Z,12.90
2018-04-26T04:32:59.327Z,8.90
2018-04-26T04:33:59.309Z,7.80
2018-04-26T04:34:59.294Z,11.50
2018-04-26T04:35:59.280Z,11.20
2018-04-26T04:36:59.266Z,11.80
2018-04-26T04:37:59.237Z,12.10
2018-04-26T04:38:59.231Z,11.30
2018-04-26T04:39:59.210Z,11.80
2018-04-26T04:40:59.188Z,10.70
2018-04-26T04:41:59.166Z,12.10
2018-04-26T04:42:59.160Z,12.80
2018-04-26T04:43:59.142Z,15.60
2018-04-26T04:44:59.118Z,11.40
2018-04-26T04:45:59.100Z,11.90
2018-04-26T04:46:59.080Z,12.10
2018-04-26T04:47:59.130Z,10.50
2018-04-26T04:48:59.049Z,8.80
2018-04-26T04:49:59.027Z,13.80
2018-04-26T04:50:59.012Z,14.90
2018-04-26T04:51:59.000Z,13.90
2018-04-26T04:52:58.973Z,12.20
2018-04-26T04:53:58.958Z,11.30
2018-04-26T04:54:58.937Z,13.20
2018-04-26T04:55:58.917Z,10.20
2018-04-26T04:56:58.897Z,14.80
2018-04-26T04:57:58.882Z,11.20
2018-04-26T04:58:58.867Z,11.10
2018-04-26T04:59:58.998Z,10.10
2018-04-26T05:00:58.833Z,12.80
2018-04-26T05:01:58.870Z,8.90
2018-04-26T05:02:58.801Z,11.40
2018-04-26T05:03:58.777Z,7.50
2018-04-26T05:04:58.756Z,8.80
2018-04-26T05:05:58.748Z,9.70
2018-04-26T05:06:58.773Z,6.60
2018-04-26T05:07:58.713Z,7.90
2018-04-26T05:08:58.687Z,6.50
2018-04-26T05:09:58.719Z,7.70
2018-04-26T05:10:58.647Z,8.90
2018-04-26T05:11:58.630Z,6.90
2018-04-26T05:12:58.617Z,7.20
2018-04-26T05:13:58.648Z,8.20
2018-04-26T05:14:58.587Z,5.10
2018-04-26T05:15:58.714Z,8.90
2018-04-26T05:16:58.543Z,6.90
2018-04-26T05:17:58.585Z,7.20
2018-04-26T05:18:58.505Z,5.20
2018-04-26T05:19:58.636Z,6.70
2018-04-26T05:20:58.468Z,7.80
2018-04-26T05:21:58.494Z,6.60
2018-04-26T05:22:58.438Z,6.40
2018-04-26T05:23:58.416Z,6.90
2018-04-26T05:24:58.414Z,4.50
2018-04-26T05:25:58.429Z,6.80
2018-04-26T05:26:58.358Z,7.90
2018-04-26T05:27:58.347Z,7.30
2018-04-26T05:28:58.328Z,5.90
2018-04-26T05:29:58.310Z,5.40
2018-04-26T05:30:58.286Z,5.50
2018-04-26T05:31:58.323Z,7.00
2018-04-26T05:32:58.253Z,7.20
2018-04-26T05:33:58.235Z,6.80
2018-04-26T05:34:58.216Z,6.80
2018-04-26T05:35:58.209Z,8.30
2018-04-26T05:36:58.177Z,6.50
2018-04-26T05:37:58.172Z,4.10
2018-04-26T05:38:58.148Z,4.50
2018-04-26T05:39:58.127Z,7.20
2018-04-26T05:40:58.118Z,6.00
2018-04-26T05:41:58.092Z,5.40
2018-04-26T05:42:58.070Z,6.40
2018-04-26T05:43:58.052Z,6.60
2018-04-26T05:44:58.039Z,5.90
2018-04-26T05:45:58.018Z,6.50
2018-04-26T05:46:58.005Z,7.80
2018-04-26T05:47:57.989Z,7.90
2018-04-26T05:48:57.964Z,7.30
2018-04-26T05:49:57.951Z,7.60
2018-04-26T05:50:57.933Z,5.10
2018-04-26T05:51:57.922Z,6.90
2018-04-26T05:52:57.901Z,7.00
2018-04-26T05:53:57.881Z,5.20
2018-04-26T05:54:57.858Z,7.70
2018-04-26T05:55:57.988Z,5.90
2018-04-26T05:56:57.835Z,7.80
2018-04-26T05:57:57.807Z,6.50
2018-04-26T05:58:57.792Z,7.30
2018-04-26T05:59:57.782Z,7.60
2018-04-26T06:00:57.763Z,8.10
2018-04-26T06:01:57.740Z,6.80
2018-04-26T06:02:57.721Z,7.50
2018-04-26T06:03:57.705Z,7.40
2018-04-26T06:04:57.685Z,10.10
2018-04-26T06:05:57.666Z,6.00
2018-04-26T06:06:57.650Z,7.50
2018-04-26T06:07:57.638Z,7.30
2018-04-26T06:08:57.614Z,7.70
2018-04-26T06:09:57.596Z,8.80
2018-04-26T06:10:57.583Z,8.40
2018-04-26T06:11:57.560Z,8.00
2018-04-26T06:12:57.547Z,10.80
2018-04-26T06:13:57.529Z,8.30
2018-04-26T06:14:57.509Z,6.00
2018-04-26T06:15:57.504Z,10.00
2018-04-26T06:16:57.566Z,8.90
2018-04-26T06:17:57.465Z,11.00
2018-04-26T06:18:57.455Z,8.90
2018-04-26T06:19:57.428Z,10.60
2018-04-26T06:20:57.422Z,11.20
2018-04-26T06:21:57.391Z,7.90
2018-04-26T06:22:57.373Z,8.00
2018-04-26T06:23:57.357Z,9.40
2018-04-26T06:24:57.370Z,8.70
2018-04-26T06:25:57.319Z,7.30
2018-04-26T06:26:57.306Z,9.00
2018-04-26T06:27:57.347Z,9.90
2018-04-26T06:28:57.274Z,8.40
2018-04-26T06:29:57.249Z,9.90
2018-04-26T06:30:57.299Z,9.20
2018-04-26T06:31:57.230Z,8.30
2018-04-26T06:32:57.203Z,6.60
2018-04-26T06:33:57.284Z,8.30
2018-04-26T06:34:57.168Z,10.30
2018-04-26T06:35:57.150Z,9.30
2018-04-26T06:36:57.181Z,7.50
2018-04-26T06:37:57.118Z,7.90
2018-04-26T06:38:57.100Z,9.30
2018-04-26T06:39:57.080Z,7.20
2018-04-26T06:40:57.066Z,8.30
2018-04-26T06:41:57.051Z,8.30
2018-04-26T06:42:57.038Z,7.90
2018-04-26T06:43:57.063Z,9.80
2018-04-26T06:44:57.002Z,8.10
2018-04-26T06:45:56.979Z,7.30
2018-04-26T06:46:56.964Z,8.20
2018-04-26T06:47:57.111Z,8.20
2018-04-26T06:48:56.940Z,10.30
2018-04-26T06:49:56.914Z,8.00
2018-04-26T06:50:56.900Z,10.90
2018-04-26T06:51:56.883Z,7.40
2018-04-26T06:52:56.867Z,7.70
2018-04-26T06:53:56.848Z,7.70
2018-04-26T06:54:56.832Z,6.80
2018-04-26T06:55:56.823Z,8.80
2018-04-26T06:56:56.800Z,9.80
2018-04-26T06:57:56.788Z,9.10
2018-04-26T06:58:56.773Z,6.10
2018-04-26T06:59:56.753Z,7.20
2018-04-26T07:00:56.742Z,7.60
2018-04-26T07:01:56.722Z,7.60
2018-04-26T07:02:56.708Z,8.80
2018-04-26T07:03:56.689Z,6.00
2018-04-26T07:04:56.670Z,8.90
2018-04-26T07:05:56.657Z,8.10
2018-04-26T07:06:56.646Z,7.20
2018-04-26T07:07:56.634Z,6.80
2018-04-26T07:08:56.606Z,9.10
2018-04-26T07:09:56.601Z,9.50
2018-04-26T07:10:56.584Z,7.20
2018-04-26T07:11:56.566Z,8.40
2018-04-26T07:12:56.546Z,9.10
2018-04-26T07:13:56.531Z,7.30
2018-04-26T07:14:56.510Z,8.50
2018-04-26T07:15:56.496Z,7.60
2018-04-26T07:16:56.488Z,7.50
2018-04-26T07:17:56.474Z,7.70
2018-04-26T07:18:56.451Z,8.60
2018-04-26T07:19:56.432Z,10.10
2018-04-26T07:20:56.417Z,5.90
2018-04-26T07:21:56.411Z,7.40
2018-04-26T07:22:56.390Z,6.70
2018-04-26T07:23:56.379Z,5.50
2018-04-26T07:24:56.360Z,9.80
2018-04-26T07:25:56.350Z,8.20
2018-04-26T07:26:56.339Z,9.30
2018-04-26T07:27:56.332Z,7.10
2018-04-26T07:28:56.323Z,7.30
2018-04-26T07:29:56.300Z,6.10
2018-04-26T07:30:56.290Z,7.90
2018-04-26T07:31:56.274Z,5.40
2018-04-26T07:32:56.265Z,6.00
2018-04-26T07:33:56.255Z,8.00
2018-04-26T07:34:56.255Z,5.30
2018-04-26T07:35:56.236Z,5.90
2018-04-26T07:36:56.219Z,9.20
2018-04-26T07:37:56.208Z,6.80
2018-04-26T07:38:56.196Z,7.50
2018-04-26T07:39:56.187Z,7.80
2018-04-26T07:40:56.174Z,7.30
2018-04-26T07:41:56.165Z,7.20
2018-04-26T07:42:56.149Z,9.20
2018-04-26T07:43:56.142Z,9.50
2018-04-26T07:44:56.126Z,6.40
2018-04-26T07:45:56.110Z,7.90
2018-04-26T07:46:56.095Z,8.20
2018-04-26T07:47:56.085Z,7.30
2018-04-26T07:48:56.070Z,6.80
2018-04-26T07:49:56.056Z,9.20
2018-04-26T07:50:56.041Z,7.50
2018-04-26T07:51:56.029Z,8.00
2018-04-26T07:52:56.016Z,6.60
2018-04-26T07:53:56.001Z,7.80
2018-04-26T07:54:55.989Z,8.50
2018-04-26T07:55:55.986Z,9.90
2018-04-26T07:56:55.962Z,8.60
2018-04-26T07:57:55.948Z,6.70
2018-04-26T07:58:55.939Z,6.30
2018-04-26T07:59:55.932Z,6.20
2018-04-26T08:00:56.072Z,7.80
2018-04-26T08:01:55.907Z,6.10
2018-04-26T08:02:56.104Z,5.10
2018-04-26T08:03:55.880Z,7.60
2018-04-26T08:04:55.871Z,5.70
2018-04-26T08:05:55.867Z,6.60
2018-04-26T08:06:55.843Z,5.90
2018-04-26T08:07:55.831Z,7.10
2018-04-26T08:08:55.821Z,6.90
2018-04-26T08:09:55.811Z,7.20
2018-04-26T08:10:55.800Z,7.20
2018-04-26T08:11:55.788Z,8.10
2018-04-26T08:12:55.785Z,7.90
2018-04-26T08:13:55.770Z,7.00
2018-04-26T08:14:55.759Z,7.90
2018-04-26T08:15:55.761Z,5.30
2018-04-26T08:16:55.743Z,5.90
2018-04-26T08:17:55.734Z,6.80
2018-04-26T08:18:55.732Z,6.40
2018-04-26T08:19:55.720Z,6.70
2018-04-26T08:20:55.711Z,5.30
2018-04-26T08:21:55.702Z,7.50
2018-04-26T08:22:55.689Z,6.40
2018-04-26T08:23:55.685Z,6.10
2018-04-26T08:24:55.735Z,7.90
2018-04-26T08:25:55.668Z,8.70
2018-04-26T08:26:55.656Z,6.60
2018-04-26T08:27:55.642Z,7.50
2018-04-26T08:28:55.634Z,5.80
2018-04-26T08:29:55.622Z,6.70
2018-04-26T08:30:55.619Z,7.30
2018-04-26T08:31:55.611Z,5.80
2018-04-26T08:32:55.595Z,6.40
2018-04-26T08:33:55.587Z,5.30
2018-04-26T08:34:55.580Z,4.60
2018-04-26T08:35:55.577Z,7.20
2018-04-26T08:36:55.607Z,6.60
2018-04-26T08:37:55.556Z,6.70
2018-04-26T08:38:55.557Z,9.00
2018-04-26T08:39:55.783Z,6.50
2018-04-26T08:40:55.541Z,6.40
2018-04-26T08:41:55.529Z,5.70
2018-04-26T08:42:55.525Z,6.90
2018-04-26T08:43:55.583Z,5.20
2018-04-26T08:44:55.511Z,6.00
2018-04-26T08:45:55.631Z,4.40
2018-04-26T08:46:55.534Z,6.10
2018-04-26T08:47:55.487Z,5.90
2018-04-26T08:48:55.483Z,6.00
2018-04-26T08:49:55.520Z,5.20
2018-04-26T08:50:55.462Z,5.00
2018-04-26T08:51:55.465Z,6.80
2018-04-26T08:52:55.462Z,5.20
2018-04-26T08:53:55.449Z,6.90
2018-04-26T08:54:55.442Z,6.70
2018-04-26T08:55:55.430Z,5.20
2018-04-26T08:56:55.424Z,4.70
2018-04-26T08:57:55.428Z,6.40
2018-04-26T08:58:55.414Z,8.30
2018-04-26T08:59:55.403Z,5.00
2018-04-26T09:00:55.448Z,6.30
2018-04-26T09:01:55.396Z,5.60
2018-04-26T09:02:55.381Z,5.00
2018-04-26T09:03:55.377Z,4.40
2018-04-26T09:04:55.372Z,5.40
2018-04-26T09:05:55.368Z,6.90
2018-04-26T09:06:55.356Z,6.20
2018-04-26T09:07:55.349Z,7.30
2018-04-26T09:08:55.345Z,5.50
2018-04-26T09:09:55.340Z,7.90
2018-04-26T09:10:55.330Z,8.60
2018-04-26T09:11:55.322Z,6.70
2018-04-26T09:12:55.311Z,6.40
2018-04-26T09:13:55.302Z,7.40
2018-04-26T09:14:55.291Z,8.00
2018-04-26T09:15:55.386Z,6.80
2018-04-26T09:16:55.277Z,7.30
2018-04-26T09:17:55.269Z,7.70
2018-04-26T09:18:55.262Z,7.70
2018-04-26T09:19:55.249Z,7.60
2018-04-26T09:20:55.243Z,7.20
2018-04-26T09:21:55.258Z,8.20
2018-04-26T09:22:55.221Z,9.40
2018-04-26T09:23:55.210Z,8.00
2018-04-26T09:24:55.197Z,9.50
2018-04-26T09:25:55.189Z,8.90
2018-04-26T09:26:55.174Z,8.30
2018-04-26T09:27:55.159Z,8.80
2018-04-26T09:28:55.157Z,8.30
2018-04-26T09:29:55.136Z,10.30
2018-04-26T09:30:55.130Z,11.40
2018-04-26T09:31:55.111Z,10.20
2018-04-26T09:32:55.098Z,9.10
2018-04-26T09:33:55.090Z,7.20
2018-04-26T09:34:55.074Z,8.30
2018-04-26T09:35:55.056Z,9.20
2018-04-26T09:36:55.042Z,8.20
2018-04-26T09:37:55.030Z,9.60
2018-04-26T09:38:55.020Z,6.60
2018-04-26T09:39:55.010Z,8.10
2018-04-26T09:40:54.991Z,6.10
2018-04-26T09:41:54.980Z,7.80
2018-04-26T09:42:54.981Z,8.00
2018-04-26T09:43:54.960Z,8.10
2018-04-26T09:44:54.973Z,6.90
2018-04-26T09:45:54.940Z,7.30
2018-04-26T09:46:54.920Z,5.60
2018-04-26T09:47:54.911Z,6.90
2018-04-26T09:48:54.900Z,7.50
2018-04-26T09:49:54.885Z,5.90
2018-04-26T09:50:54.875Z,6.10
2018-04-26T09:51:54.858Z,7.00
2018-04-26T09:52:54.850Z,8.40
2018-04-26T09:53:54.837Z,6.20
2018-04-26T09:54:54.831Z,6.10
2018-04-26T09:55:54.819Z,6.40
2018-04-26T09:56:54.834Z,6.50
2018-04-26T09:57:54.798Z,7.60
2018-04-26T09:58:54.790Z,6.70
2018-04-26T09:59:54.780Z,5.40
2018-04-26T10:00:54.774Z,7.80
2018-04-26T10:01:54.757Z,6.70
2018-04-26T10:02:54.750Z,6.40
2018-04-26T10:03:54.741Z,6.70
2018-04-26T10:04:54.727Z,9.40
2018-04-26T10:05:54.719Z,5.60
2018-04-26T10:06:54.722Z,7.10
2018-04-26T10:07:54.690Z,9.00
2018-04-26T10:08:54.679Z,7.50
2018-04-26T10:09:54.667Z,5.70
2018-04-26T10:10:54.658Z,6.00
2018-04-26T10:11:54.658Z,6.50
2018-04-26T10:12:54.634Z,7.10
2018-04-26T10:13:54.628Z,7.80
2018-04-26T10:14:54.616Z,6.90
2018-04-26T10:15:54.618Z,8.80
2018-04-26T10:16:54.664Z,7.40
2018-04-26T10:17:54.591Z,6.80
2018-04-26T10:18:54.574Z,6.10
2018-04-26T10:19:54.565Z,7.80
2018-04-26T10:20:54.549Z,6.70
2018-04-26T10:21:54.537Z,5.30
2018-04-26T10:22:54.534Z,7.80
2018-04-26T10:23:54.519Z,8.00
2018-04-26T10:24:54.509Z,6.50
2018-04-26T10:25:54.510Z,5.60
2018-04-26T10:26:54.489Z,9.60
2018-04-26T10:27:54.478Z,6.60
2018-04-26T10:28:54.459Z,6.20
2018-04-26T10:29:54.484Z,7.20
2018-04-26T10:30:54.451Z,6.70
2018-04-26T10:31:54.425Z,8.00
2018-04-26T10:32:54.426Z,7.90
2018-04-26T10:33:54.486Z,6.60
2018-04-26T10:34:54.389Z,6.30
2018-04-26T10:35:54.419Z,6.50
2018-04-26T10:36:54.363Z,7.20
2018-04-26T10:37:54.407Z,6.20
2018-04-26T10:38:54.339Z,7.50
2018-04-26T10:39:54.329Z,7.30
2018-04-26T10:40:54.318Z,9.30
2018-04-26T10:41:54.443Z,7.00
2018-04-26T10:42:54.296Z,7.30
2018-04-26T10:43:54.332Z,7.60
2018-04-26T10:44:54.269Z,9.20
2018-04-26T10:45:54.375Z,9.40
2018-04-26T10:46:54.249Z,7.70
2018-04-26T10:47:54.239Z,7.70
2018-04-26T10:48:54.223Z,8.10
2018-04-26T10:49:54.216Z,7.00
2018-04-26T10:50:54.199Z,9.30
2018-04-26T10:51:54.188Z,8.40
2018-04-26T10:52:54.257Z,6.40
2018-04-26T10:53:54.165Z,7.10
2018-04-26T10:54:54.152Z,8.60
2018-04-26T10:55:54.149Z,7.50
2018-04-26T10:56:54.138Z,5.70
2018-04-26T10:57:54.123Z,7.90
2018-04-26T10:58:54.117Z,6.60
2018-04-26T10:59:54.101Z,6.30
2018-04-26T11:00:54.090Z,6.90
2018-04-26T11:01:54.078Z,6.60
2018-04-26T11:02:54.073Z,5.70
2018-04-26T11:03:54.057Z,10.30
2018-04-26T11:04:54.048Z,8.70
2018-04-26T11:05:54.034Z,6.80
2018-04-26T11:06:54.039Z,8.60
2018-04-26T11:07:54.012Z,8.00
2018-04-26T11:08:54.007Z,6.50
2018-04-26T11:09:53.980Z,7.80
2018-04-26T11:10:53.967Z,6.10
2018-04-26T11:11:53.961Z,7.40
2018-04-26T11:12:53.947Z,7.40
2018-04-26T11:13:53.937Z,6.80
2018-04-26T11:14:53.929Z,5.20
2018-04-26T11:15:53.915Z,8.80
2018-04-26T11:16:53.902Z,9.10
2018-04-26T11:17:53.898Z,8.50
2018-04-26T11:18:53.879Z,6.10
2018-04-26T11:19:53.871Z,6.80
2018-04-26T11:20:53.861Z,4.50
2018-04-26T11:21:53.848Z,5.90
2018-04-26T11:22:53.830Z,4.60
2018-04-26T11:23:53.820Z,6.10
2018-04-26T11:24:53.812Z,5.20
2018-04-26T11:25:53.802Z,4.40
2018-04-26T11:26:53.782Z,4.30
2018-04-26T11:27:53.767Z,3.60
2018-04-26T11:28:53.759Z,3.50
2018-04-26T11:29:53.822Z,7.40
2018-04-26T11:30:53.810Z,4.80
2018-04-26T11:31:53.721Z,3.40
2018-04-26T11:32:53.712Z,4.30
2018-04-26T11:33:53.700Z,7.10
2018-04-26T11:34:53.690Z,4.90
2018-04-26T11:35:53.679Z,5.20
2018-04-26T11:36:53.665Z,5.50
2018-04-26T11:37:53.659Z,6.20
2018-04-26T11:38:53.639Z,7.20
2018-04-26T11:39:53.630Z,6.10
2018-04-26T11:40:53.626Z,6.40
2018-04-26T11:41:53.606Z,5.30
2018-04-26T11:42:53.598Z,5.40
2018-04-26T11:43:53.585Z,7.20
2018-04-26T11:44:53.583Z,4.70
2018-04-26T11:45:53.564Z,6.40
2018-04-26T11:46:53.549Z,5.40
2018-04-26T11:47:53.543Z,7.20
2018-04-26T11:48:53.548Z,6.00
2018-04-26T11:49:53.516Z,4.80
2018-04-26T11:50:53.519Z,7.10
2018-04-26T11:51:53.500Z,7.30
2018-04-26T11:52:53.489Z,7.00
2018-04-26T11:53:53.482Z,7.60
2018-04-26T11:54:53.470Z,6.20
2018-04-26T11:55:53.446Z,6.80
2018-04-26T11:56:53.438Z,5.80
2018-04-26T11:57:53.420Z,6.00
2018-04-26T11:58:53.434Z,8.00
2018-04-26T11:59:53.399Z,5.40
2018-04-26T12:00:53.388Z,5.10
2018-04-26T12:01:53.379Z,7.20
2018-04-26T12:02:53.389Z,7.00
2018-04-26T12:03:53.354Z,7.70
2018-04-26T12:04:53.340Z,11.60
2018-04-26T12:05:53.319Z,8.50
2018-04-26T12:06:53.313Z,8.50
2018-04-26T12:07:53.299Z,9.80
2018-04-26T12:08:53.295Z,9.60
2018-04-26T12:09:53.270Z,8.80
2018-04-26T12:10:53.259Z,8.60
2018-04-26T12:11:53.251Z,7.80
2018-04-26T12:12:53.232Z,7.80
2018-04-26T12:13:53.213Z,9.00
2018-04-26T12:14:53.206Z,8.00
2018-04-26T12:15:53.198Z,8.20
2018-04-26T12:16:53.182Z,7.90
2018-04-26T12:17:53.156Z,6.00
2018-04-26T12:18:53.152Z,5.90
2018-04-26T12:19:53.130Z,6.80
2018-04-26T12:20:53.112Z,6.70
2018-04-26T12:21:53.102Z,5.40
2018-04-26T12:22:53.083Z,7.00
2018-04-26T12:23:53.079Z,6.00
2018-04-26T12:24:53.069Z,7.30
2018-04-26T12:25:53.041Z,7.00
2018-04-26T12:26:53.040Z,6.30
2018-04-26T12:27:53.013Z,7.70
2018-04-26T12:28:52.997Z,6.70
2018-04-26T12:29:52.984Z,7.10
2018-04-26T12:30:52.969Z,8.00
2018-04-26T12:31:52.951Z,7.80
2018-04-26T12:32:52.942Z,7.60
2018-04-26T12:33:52.920Z,9.30
2018-04-26T12:34:52.911Z,11.30
2018-04-26T12:35:52.901Z,8.20
2018-04-26T12:36:52.878Z,8.60
2018-04-26T12:37:52.876Z,8.40
2018-04-26T12:38:52.849Z,8.00
2018-04-26T12:39:52.834Z,9.50
2018-04-26T12:40:52.827Z,7.20
2018-04-26T12:41:52.815Z,6.00
2018-04-26T12:42:52.798Z,4.80
2018-04-26T12:43:52.788Z,4.90
2018-04-26T12:44:52.781Z,5.40
2018-04-26T12:45:52.758Z,9.70
2018-04-26T12:46:52.742Z,5.50
2018-04-26T12:47:52.730Z,6.60
2018-04-26T12:48:52.716Z,5.40
2018-04-26T12:49:52.720Z,7.30
2018-04-26T12:50:52.687Z,12.30
2018-04-26T12:51:52.689Z,7.70
2018-04-26T12:52:52.670Z,8.10
2018-04-26T12:53:52.662Z,10.10
2018-04-26T12:54:52.638Z,8.90
2018-04-26T12:55:52.624Z,8.80
2018-04-26T12:56:52.624Z,11.60
2018-04-26T12:57:52.605Z,8.30
2018-04-26T12:58:52.588Z,8.80
2018-04-26T12:59:52.580Z,9.20
2018-04-26T13:00:52.571Z,7.30
2018-04-26T13:01:52.548Z,7.50
2018-04-26T13:02:52.538Z,8.40
2018-04-26T13:03:52.529Z,7.60
2018-04-26T13:04:52.527Z,7.20
2018-04-26T13:05:52.506Z,7.80
2018-04-26T13:06:52.488Z,6.10
2018-04-26T13:07:52.504Z,5.80
2018-04-26T13:08:52.468Z,8.00